West Hallam, United Kingdom
Current Conditions -  °F | °C
As of 2:20 PM on Wednesday 28 Jan 2015 (Local Time) from EGNX Reporting Station
Rain Showers Rain Showers  
Wind Chill: 30°   Ceiling: Unl
Heat Index: 41°   Visibility: 6mi
Dew Point: 30°   Wind: 31mph
Humidity: 65%   Direction: 270°W
Pressure: 29.47"   Gusts: 44mph
Location:  52.97°N, 1.36°W
Report Text: EGNX 281420Z 27027G38KT 9999 VCSH FEW010 SCT038 05/M01 Q0998
Loading
Personal Weather Stations






























Interactive Weather Map New forecast layout! Learn more

10-Day Weather Forecast

Advertisements
Track Severe Weather on mobile